Time;durP1;ratioP1;P1;durP2;ratioP2;P2;SDS_P1;SDS_P2;PMS_P1;PMS_P2;Temp;Humidity;BMP_temperature;BMP_pressure;BME280_temperature;BME280_humidity;BME280_pressure;Samples;Min_cycle;Max_cycle;Signal;HPM_P1;HPM_P2
2022/10/28 00:04:56;;;;;;;3.55;0.50;;;;;;;20.04;51.88;101641.75;16133667;19;129960;-42
2022/10/28 00:10:18;;;;;;;0.45;0.28;;;;;;;20.03;51.59;101637.28;16132026;19;129701;-42
2022/10/28 00:15:40;;;;;;;1.48;0.45;;;;;;;20.03;52.02;101631.72;16132822;19;130710;-42
2022/10/28 00:21:04;;;;;;;0.70;0.30;;;;;;;20.02;51.67;101618.94;16129030;19;131203;-42
2022/10/28 00:26:31;;;;;;;0.43;0.35;;;;;;;20.02;51.64;101618.94;16131842;19;129458;-43
2022/10/28 00:31:54;;;;;;;1.65;0.40;;;;;;;20.01;52.03;101622.78;16132039;19;129564;-43
2022/10/28 00:37:15;;;;;;;1.52;0.50;;;;;;;19.99;51.95;101621.09;16131109;19;129729;-42
2022/10/28 00:42:37;;;;;;;0.63;0.32;;;;;;;19.98;51.99;101616.59;16132014;19;130888;-47
2022/10/28 00:48:03;;;;;;;0.70;0.40;;;;;;;19.98;51.81;101611.03;16130311;19;129411;-42
2022/10/28 00:53:28;;;;;;;0.45;0.30;;;;;;;19.98;51.77;101612.97;16127529;19;129212;-42
2022/10/28 00:58:53;;;;;;;0.98;0.50;;;;;;;19.97;52.02;101606.56;16129966;19;129570;-42
2022/10/28 01:04:15;;;;;;;0.77;0.30;;;;;;;19.96;51.61;101604.88;16127046;19;130306;-42
2022/10/28 01:09:38;;;;;;;1.88;0.40;;;;;;;19.96;52.09;101596.53;16129068;19;128875;-42
2022/10/28 01:15:44;;;;;;;0.70;0.35;;;;;;;19.96;51.64;101593.75;16129034;19;129620;-42
2022/10/28 01:21:28;;;;;;;0.85;0.40;;;;;;;19.95;51.57;101589.28;16127532;19;133702;-42
2022/10/28 01:27:23;;;;;;;0.40;0.30;;;;;;;19.93;51.58;101588.72;16129400;19;130645;-43
2022/10/28 01:33:19;;;;;;;0.32;0.22;;;;;;;19.93;52.00;101590.63;16130023;19;129183;-44
2022/10/28 01:38:47;;;;;;;1.15;0.30;;;;;;;19.91;51.59;101590.88;16126927;19;131608;-43
2022/10/28 01:44:48;;;;;;;0.52;0.40;;;;;;;19.93;51.79;101593.41;16127650;19;129742;-42
2022/10/28 01:50:46;;;;;;;0.25;0.25;;;;;;;19.90;51.58;101599.41;16127991;19;129572;-42
2022/10/28 01:56:16;;;;;;;1.63;0.30;;;;;;;19.90;51.94;101588.31;16129312;19;129259;-42
2022/10/28 02:01:38;;;;;;;0.55;0.30;;;;;;;19.89;51.82;101587.47;16129227;19;129600;-43
2022/10/28 02:07:00;;;;;;;0.22;0.20;;;;;;;19.88;51.63;101585.78;16125449;19;129522;-44
2022/10/28 02:12:32;;;;;;;0.40;0.40;;;;;;;19.89;51.89;101581.94;16126157;19;130055;-42
2022/10/28 02:18:11;;;;;;;0.47;0.40;;;;;;;19.89;51.97;101586.63;16124100;19;131142;-41
2022/10/28 02:23:59;;;;;;;0.30;0.30;;;;;;;19.87;51.79;101584.09;16120615;19;129456;-41
2022/10/28 02:29:32;;;;;;;0.70;0.20;;;;;;;19.89;51.58;101592.19;16125213;19;130279;-42
2022/10/28 02:34:59;;;;;;;0.43;0.30;;;;;;;19.87;51.89;101575.75;16123139;19;129054;-42
2022/10/28 02:40:25;;;;;;;0.50;0.20;;;;;;;19.86;51.75;101585.19;16122183;19;129371;-43
2022/10/28 02:45:51;;;;;;;0.20;0.20;;;;;;;19.87;51.46;101584.09;16123273;19;129221;-42
2022/10/28 02:51:20;;;;;;;0.63;0.40;;;;;;;19.86;51.50;101585.19;16122608;19;129589;-42
2022/10/28 02:56:57;;;;;;;0.65;0.30;;;;;;;19.87;51.53;101578.53;16124127;19;130315;-42
2022/10/28 03:02:19;;;;;;;0.73;0.40;;;;;;;19.85;51.95;101583.47;16126662;19;129918;-42
2022/10/28 03:07:41;;;;;;;0.38;0.20;;;;;;;19.83;51.94;101575.41;16135867;19;129910;-42
2022/10/28 03:13:02;;;;;;;0.90;0.30;;;;;;;19.84;51.94;101582.66;16137206;19;129548;-43
2022/10/28 03:18:24;;;;;;;0.50;0.30;;;;;;;19.84;51.42;101565.13;16137709;19;129108;-44
2022/10/28 03:23:46;;;;;;;0.30;0.20;;;;;;;19.82;51.95;101572.84;16138220;19;130037;-43
2022/10/28 03:29:07;;;;;;;0.50;0.30;;;;;;;19.83;51.86;101571.75;16136887;19;130308;-42
2022/10/28 03:34:29;;;;;;;0.40;0.20;;;;;;;19.83;51.70;101571.75;16136950;19;128896;-42
2022/10/28 03:39:51;;;;;;;0.60;0.20;;;;;;;19.82;51.47;101564.50;16136170;19;129395;-42
2022/10/28 03:45:12;;;;;;;0.38;0.30;;;;;;;19.81;51.64;101569.25;16136032;19;129741;-43
2022/10/28 03:50:34;;;;;;;0.52;0.30;;;;;;;19.81;51.43;101569.25;16133301;19;129455;-45
2022/10/28 03:55:58;;;;;;;0.20;0.20;;;;;;;19.81;51.55;101571.19;16131223;19;129338;-42
2022/10/28 04:01:20;;;;;;;0.38;0.20;;;;;;;19.81;51.68;101568.41;16129912;19;129627;-42
2022/10/28 04:06:42;;;;;;;0.40;0.40;;;;;;;19.79;51.66;101554.75;16136194;19;130469;-41
2022/10/28 04:12:05;;;;;;;0.30;0.30;;;;;;;19.80;51.81;101561.16;16133335;19;129665;-43
2022/10/28 04:17:27;;;;;;;0.20;0.20;;;;;;;19.79;51.79;101563.06;16132449;19;129443;-43
2022/10/28 04:22:48;;;;;;;0.32;0.20;;;;;;;19.79;51.66;101556.69;16134158;19;129888;-42
2022/10/28 04:28:17;;;;;;;0.28;0.28;;;;;;;19.78;51.76;101564.16;16131401;19;130347;-44
2022/10/28 04:33:39;;;;;;;0.22;0.22;;;;;;;19.78;51.41;101558.59;16132758;19;130551;-42
2022/10/28 04:39:00;;;;;;;0.60;0.30;;;;;;;19.77;51.88;101550.53;16131597;19;130532;-47
2022/10/28 04:44:22;;;;;;;0.30;0.20;;;;;;;19.77;51.56;101554.13;16130585;19;129850;-44
2022/10/28 04:49:44;;;;;;;0.63;0.22;;;;;;;19.78;51.83;101555.00;16132522;19;129776;-42
2022/10/28 04:55:06;;;;;;;0.32;0.30;;;;;;;19.77;51.59;101556.06;16133266;19;131302;-42
2022/10/28 05:00:28;;;;;;;0.65;0.20;;;;;;;19.76;51.53;101560.75;16130155;19;130161;-46
2022/10/28 05:05:50;;;;;;;0.65;0.20;;;;;;;19.75;51.70;101549.91;16130329;19;129507;-44
2022/10/28 05:11:12;;;;;;;1.05;0.40;;;;;;;19.75;51.88;101564.66;16127605;19;130110;-43
2022/10/28 05:16:33;;;;;;;0.45;0.20;;;;;;;19.79;51.94;101553.91;16127831;19;129364;-54
2022/10/28 05:21:55;;;;;;;0.30;0.20;;;;;;;19.82;51.84;101554.28;16126784;19;130650;-43
2022/10/28 05:27:17;;;;;;;0.82;0.40;;;;;;;19.86;51.56;101549.06;16129037;19;129432;-45
2022/10/28 05:32:38;;;;;;;1.13;0.20;;;;;;;19.88;51.55;101552.47;16127449;19;130038;-42
2022/10/28 05:38:00;;;;;;;0.57;0.22;;;;;;;19.90;51.26;101549.44;16126995;19;130174;-51
2022/10/28 05:43:22;;;;;;;0.45;0.30;;;;;;;19.93;51.68;101541.50;16126126;19;130213;-40
2022/10/28 05:48:43;;;;;;;2.17;0.55;;;;;;;19.94;51.81;101545.09;16122425;19;129901;-40
2022/10/28 05:54:05;;;;;;;1.02;0.40;;;;;;;19.93;51.60;101555.38;16122372;19;129513;-40
2022/10/28 05:59:27;;;;;;;2.47;0.38;;;;;;;19.91;51.59;101552.00;16122908;19;129362;-41
2022/10/28 06:04:49;;;;;;;1.33;0.40;;;;;;;19.90;51.83;101544.75;16123729;19;129554;-40
2022/10/28 06:10:11;;;;;;;1.08;0.50;;;;;;;19.89;51.48;101534.72;16123155;19;129739;-41
2022/10/28 06:15:33;;;;;;;2.13;0.50;;;;;;;19.89;51.69;101540.28;16122983;19;130073;-40
2022/10/28 06:20:58;;;;;;;1.50;0.50;;;;;;;19.88;51.78;101540.53;16125859;19;129691;-40
2022/10/28 06:26:20;;;;;;;0.75;0.40;;;;;;;19.86;51.80;101546.31;16123773;19;130483;-40
2022/10/28 06:31:42;;;;;;;3.13;0.40;;;;;;;19.85;51.92;101547.38;16120329;19;130925;-39
2022/10/28 06:37:05;;;;;;;0.70;0.30;;;;;;;19.84;51.83;101548.47;16124482;19;129527;-39
2022/10/28 06:42:27;;;;;;;0.50;0.30;;;;;;;19.86;51.61;101545.47;16120154;19;129377;-40
2022/10/28 06:47:53;;;;;;;2.95;0.70;;;;;;;19.87;51.78;101556.31;16121044;19;129037;-40
2022/10/28 06:53:14;;;;;;;2.90;0.47;;;;;;;19.95;51.62;101563.47;16121037;19;129573;-40
2022/10/28 06:58:36;;;;;;;3.10;0.70;;;;;;;20.07;51.06;101569.91;16122273;19;129823;-39
2022/10/28 07:03:58;;;;;;;3.20;1.00;;;;;;;20.16;51.30;101564.84;16123453;19;129321;-40
2022/10/28 07:09:20;;;;;;;5.88;0.98;;;;;;;20.22;50.81;101566.63;16119135;19;130241;-40
2022/10/28 07:14:41;;;;;;;6.40;0.90;;;;;;;20.31;50.87;101549.63;16120178;19;131509;-40
2022/10/28 07:20:03;;;;;;;2.85;1.08;;;;;;;20.49;50.53;101546.69;16118903;19;129660;-40
2022/10/28 07:25:27;;;;;;;3.17;1.00;;;;;;;20.96;49.57;101547.69;16119160;19;129261;-39
2022/10/28 07:30:48;;;;;;;2.47;1.00;;;;;;;21.11;49.08;101563.88;16120566;19;129296;-40
2022/10/28 07:36:10;;;;;;;2.70;0.95;;;;;;;21.34;48.98;101576.81;16119470;19;130028;-40
2022/10/28 07:41:32;;;;;;;2.85;0.88;;;;;;;21.71;48.19;101573.63;16119158;19;130588;-40
2022/10/28 07:46:54;;;;;;;2.85;1.08;;;;;;;22.19;46.95;101579.72;16134518;19;130243;-40
2022/10/28 07:52:19;;;;;;;5.70;0.83;;;;;;;22.31;46.75;101582.41;16135679;19;129789;-41
2022/10/28 07:57:41;;;;;;;1.85;0.90;;;;;;;21.87;47.21;101576.69;16138010;19;133626;-44
2022/10/28 08:03:03;;;;;;;3.03;1.08;;;;;;;21.76;47.64;101582.06;16134537;19;129648;-40
2022/10/28 08:08:24;;;;;;;8.05;1.40;;;;;;;21.83;47.19;101581.91;16133793;19;129886;-41
2022/10/28 08:13:46;;;;;;;3.55;1.20;;;;;;;21.81;47.13;101578.53;16134762;19;134889;-40
2022/10/28 08:19:09;;;;;;;4.35;1.08;;;;;;;21.49;47.58;101574.34;16133673;19;130206;-40
2022/10/28 08:24:31;;;;;;;1.52;0.80;;;;;;;21.39;47.93;101587.19;16130702;19;130946;-40
2022/10/28 08:29:53;;;;;;;4.28;1.20;;;;;;;21.33;47.84;101589.03;16133689;19;129743;-41
2022/10/28 08:35:15;;;;;;;2.97;1.00;;;;;;;21.13;48.67;101589.47;16132261;19;131098;-40
2022/10/28 08:40:50;;;;;;;3.03;1.15;;;;;;;21.00;48.81;101598.97;16134480;19;129671;-40
2022/10/28 08:46:28;;;;;;;2.73;1.10;;;;;;;20.88;48.83;101588.72;16130086;19;129445;-40
2022/10/28 08:51:56;;;;;;;7.07;1.70;;;;;;;20.81;49.01;101593.56;16131665;19;130279;-39
2022/10/28 08:57:50;;;;;;;5.80;1.42;;;;;;;20.75;49.62;101597.28;16129221;19;129284;-38
2022/10/28 09:03:24;;;;;;;8.00;1.70;;;;;;;20.72;49.66;101603.34;16128508;19;129693;-39
2022/10/28 09:08:48;;;;;;;6.22;1.60;;;;;;;20.68;49.63;101600.22;16130218;19;129745;-40
2022/10/28 09:14:20;;;;;;;7.40;2.00;;;;;;;20.68;49.51;101593.78;16130803;19;129630;-39
2022/10/28 09:19:55;;;;;;;10.45;1.65;;;;;;;20.66;49.93;101590.44;16126199;19;134298;-39
2022/10/28 09:25:36;;;;;;;8.68;1.75;;;;;;;20.68;50.03;101594.66;16127157;19;130433;-40
2022/10/28 09:30:58;;;;;;;8.77;2.40;;;;;;;20.71;49.63;101605.28;16127030;19;129465;-39
2022/10/28 09:36:29;;;;;;;12.18;2.22;;;;;;;20.79;49.90;101606.88;16123998;19;129386;-40
2022/10/28 09:41:53;;;;;;;12.05;1.90;;;;;;;20.84;49.57;101614.47;16128321;19;129307;-39
2022/10/28 09:47:22;;;;;;;6.35;2.20;;;;;;;20.88;49.25;101618.44;16128409;19;129455;-38
2022/10/28 09:53:13;;;;;;;10.07;2.65;;;;;;;20.94;49.44;101620.25;16125822;19;129695;-39
2022/10/28 09:58:36;;;;;;;9.80;2.03;;;;;;;20.96;49.42;101623.66;16124577;19;130074;-39
2022/10/28 10:03:58;;;;;;;8.57;1.98;;;;;;;20.98;49.53;101617.84;16126807;19;129566;-39
2022/10/28 10:09:26;;;;;;;8.95;2.22;;;;;;;21.00;49.26;101613.69;16121956;19;129611;-38
2022/10/28 10:14:50;;;;;;;7.93;2.22;;;;;;;20.99;49.29;101611.19;16123843;19;129398;-39
2022/10/28 10:20:19;;;;;;;16.80;3.33;;;;;;;20.99;49.44;101600.06;16124310;19;129445;-40
2022/10/28 10:25:43;;;;;;;7.95;2.10;;;;;;;20.97;49.54;101602.22;16126092;19;134419;-39
2022/10/28 10:31:07;;;;;;;16.83;2.95;;;;;;;20.97;49.31;101616.13;16123466;19;129004;-39
2022/10/28 10:36:30;;;;;;;13.48;2.95;;;;;;;20.95;49.85;101615.53;16124820;19;129635;-43
2022/10/28 10:41:54;;;;;;;18.58;2.88;;;;;;;20.94;49.63;101606.34;16124693;19;129895;-40
2022/10/28 10:47:18;;;;;;;11.90;3.05;;;;;;;20.90;49.91;101608.78;16124216;19;129329;-41
2022/10/28 10:52:47;;;;;;;18.25;3.50;;;;;;;20.88;49.42;101608.19;16120564;19;130564;-41
2022/10/28 10:58:20;;;;;;;11.05;3.10;;;;;;;20.87;49.78;101608.41;16115381;19;129866;-40
2022/10/28 11:03:50;;;;;;;15.23;3.70;;;;;;;20.86;49.61;101610.34;16116276;19;130366;-39
2022/10/28 11:09:32;;;;;;;16.20;3.38;;;;;;;20.86;49.67;101609.53;16118877;19;129622;-42
2022/10/28 11:14:59;;;;;;;11.25;3.33;;;;;;;20.84;49.28;101606.16;16115146;19;129425;-40
2022/10/28 11:20:24;;;;;;;15.07;3.45;;;;;;;20.82;49.23;101606.38;16129219;19;129573;-41
2022/10/28 11:25:50;;;;;;;15.63;3.85;;;;;;;20.81;49.40;101607.47;16135322;19;129615;-40
2022/10/28 11:31:50;;;;;;;15.95;3.45;;;;;;;20.82;49.79;101620.28;16126992;19;129805;-42
2022/10/28 11:37:33;;;;;;;11.60;3.20;;;;;;;20.81;49.87;101626.09;16133051;19;129373;-40
2022/10/28 11:43:16;;;;;;;12.35;3.75;;;;;;;20.79;50.13;101622.72;16132679;19;129724;-39
2022/10/28 11:48:59;;;;;;;12.68;2.75;;;;;;;20.77;50.11;101620.19;16133019;19;129922;-43
2022/10/28 11:54:41;;;;;;;11.82;2.95;;;;;;;20.79;49.78;101629.13;16133041;19;129401;-40
2022/10/28 12:00:44;;;;;;;10.95;3.17;;;;;;;20.81;49.54;101634.44;16130586;19;129512;-40
2022/10/28 12:06:31;;;;;;;18.80;3.20;;;;;;;20.82;49.31;101648.09;16132622;19;129627;-41
2022/10/28 12:11:52;;;;;;;;;;;;;;;20.81;49.53;101642.78;16131948;19;129406;-42
2022/10/28 12:17:34;;;;;;;13.23;3.10;;;;;;;20.88;49.46;101649.91;16131325;19;129485;-39
2022/10/28 12:22:59;;;;;;;11.80;3.17;;;;;;;20.93;49.19;101645.53;16130092;19;129520;-43
2022/10/28 12:28:29;;;;;;;9.27;3.08;;;;;;;20.97;49.43;101646.72;16132973;19;133868;-40
2022/10/28 12:33:56;;;;;;;9.63;3.05;;;;;;;20.99;49.22;101661.25;16130948;19;129963;-40
2022/10/28 12:39:29;;;;;;;10.43;2.75;;;;;;;21.03;48.97;101665.25;16132602;19;129592;-40
2022/10/28 12:44:55;;;;;;;12.95;3.53;;;;;;;21.05;48.94;101665.81;16135440;19;130910;-40
2022/10/28 12:50:39;;;;;;;13.77;2.55;;;;;;;21.05;49.03;101671.38;16131775;19;128833;-39
2022/10/28 12:56:06;;;;;;;9.57;2.45;;;;;;;21.02;48.74;101678.28;16130675;19;129574;-39
2022/10/28 13:01:30;;;;;;;5.93;2.20;;;;;;;20.99;49.25;101673.22;16129381;19;130603;-39
2022/10/28 13:07:06;;;;;;;6.20;2.57;;;;;;;20.99;49.15;101683.50;16129128;19;129589;-39
2022/10/28 13:12:28;;;;;;;9.03;2.73;;;;;;;20.96;49.22;101686.75;16130400;19;129762;-40
2022/10/28 13:18:01;;;;;;;10.23;2.75;;;;;;;20.97;49.38;101694.88;16129606;19;129495;-39
2022/10/28 13:23:23;;;;;;;9.90;2.38;;;;;;;20.93;49.46;101696.44;16132291;19;129772;-39
2022/10/28 13:28:49;;;;;;;5.90;1.98;;;;;;;20.93;49.40;101695.59;16132651;19;129714;-39
2022/10/28 13:34:13;;;;;;;10.00;1.90;;;;;;;20.92;49.59;101693.94;16127389;19;129030;-40
2022/10/28 13:39:35;;;;;;;7.30;2.00;;;;;;;20.88;49.29;101704.66;16124083;19;129023;-39
2022/10/28 13:45:00;;;;;;;8.50;2.03;;;;;;;20.88;49.67;101704.66;16127846;19;129380;-39
2022/10/28 13:50:32;;;;;;;6.87;1.93;;;;;;;20.88;49.64;101705.53;16127431;19;134994;-39
2022/10/28 13:55:57;;;;;;;8.90;2.70;;;;;;;20.87;49.26;101698.28;16127181;19;130527;-39
2022/10/28 14:01:35;;;;;;;13.27;2.72;;;;;;;20.86;49.56;101704.91;16125417;19;129383;-38
2022/10/28 14:07:00;;;;;;;9.25;2.55;;;;;;;20.83;49.64;101719.31;16123551;19;129588;-38
2022/10/28 14:12:31;;;;;;;7.87;2.00;;;;;;;20.83;49.80;101733.22;16123251;19;129321;-38
2022/10/28 14:18:13;;;;;;;11.77;2.30;;;;;;;20.82;49.65;101725.94;16124684;19;128990;-38
2022/10/28 14:24:10;;;;;;;6.40;2.03;;;;;;;20.81;49.40;101737.31;16121381;19;129516;-40
2022/10/28 14:30:03;;;;;;;8.93;2.08;;;;;;;20.78;49.84;101735.03;16121869;19;129607;-39
2022/10/28 14:35:41;;;;;;;6.97;2.38;;;;;;;20.75;49.57;101739.09;16121112;19;130331;-40
2022/10/28 14:41:12;;;;;;;10.00;2.83;;;;;;;20.72;49.99;101734.88;16122849;19;129675;-39
2022/10/28 14:46:39;;;;;;;7.70;2.10;;;;;;;20.70;49.78;101747.31;16120703;19;129127;-39
2022/10/28 14:52:16;;;;;;;8.20;2.50;;;;;;;20.69;49.83;101751.19;16117064;19;132048;-41
2022/10/28 14:57:38;;;;;;;6.93;2.08;;;;;;;20.66;49.94;101757.25;16122478;19;130089;-41
2022/10/28 15:03:00;;;;;;;6.80;1.73;;;;;;;20.63;50.25;101744.66;16122774;19;129378;-40
2022/10/28 15:08:23;;;;;;;5.28;2.05;;;;;;;20.62;49.97;101754.06;16119652;19;135343;-40
2022/10/28 15:13:51;;;;;;;6.57;1.77;;;;;;;20.63;49.79;101747.44;16118348;19;129583;-39
2022/10/28 15:19:17;;;;;;;6.82;1.38;;;;;;;20.66;49.96;101748.91;16117878;19;129865;-40
2022/10/28 15:24:40;;;;;;;4.88;1.25;;;;;;;20.66;50.04;101746.13;16120710;19;130676;-40
2022/10/28 15:30:24;;;;;;;4.13;1.50;;;;;;;20.71;49.95;101749.00;16123672;19;130151;-41
2022/10/28 15:35:46;;;;;;;4.10;1.52;;;;;;;20.75;49.78;101755.78;16123039;19;129655;-41
2022/10/28 15:41:20;;;;;;;5.55;1.50;;;;;;;20.84;49.81;101762.72;16120514;19;129437;-40
2022/10/28 15:46:48;;;;;;;4.32;1.30;;;;;;;20.88;49.57;101772.28;16123907;19;129762;-39
2022/10/28 15:52:16;;;;;;;3.22;1.08;;;;;;;20.94;49.87;101775.16;16121169;19;130187;-39
2022/10/28 15:57:52;;;;;;;3.00;1.00;;;;;;;20.98;49.61;101788.38;16125597;19;129973;-40
2022/10/28 16:03:24;;;;;;;5.25;1.10;;;;;;;20.99;49.53;101798.38;16120609;19;130714;-39
2022/10/28 16:08:48;;;;;;;4.65;1.42;;;;;;;20.98;49.79;101798.63;16140041;19;133195;-42
2022/10/28 16:14:38;;;;;;;2.72;1.27;;;;;;;20.97;49.49;101797.81;16137569;19;130396;-41
2022/10/28 16:20:26;;;;;;;4.35;1.20;;;;;;;20.94;49.64;101797.41;16141574;19;129958;-42
2022/10/28 16:25:48;;;;;;;3.60;1.10;;;;;;;20.90;49.73;101797.91;16137869;19;130375;-41
2022/10/28 16:31:14;;;;;;;3.35;1.23;;;;;;;20.89;49.91;101801.78;16134327;19;129950;-40
2022/10/28 16:36:36;;;;;;;5.40;1.67;;;;;;;20.86;49.60;101807.00;16130768;19;129765;-40
2022/10/28 16:41:58;;;;;;;11.25;2.42;;;;;;;20.84;50.23;101815.56;16130214;19;130725;-42
2022/10/28 16:47:21;;;;;;;9.55;2.20;;;;;;;20.86;50.14;101830.06;16132305;19;129306;-41
2022/10/28 16:52:43;;;;;;;7.00;2.05;;;;;;;20.86;50.18;101832.84;16133248;19;129661;-40
2022/10/28 16:58:06;;;;;;;10.40;2.25;;;;;;;20.87;50.42;101845.69;16131647;19;129662;-43
2022/10/28 17:03:27;;;;;;;17.30;3.35;;;;;;;20.87;50.47;101853.16;16129684;19;130023;-41
2022/10/28 17:08:49;;;;;;;17.33;3.25;;;;;;;20.87;50.89;101862.38;16132750;19;129222;-41
2022/10/28 17:14:24;;;;;;;13.23;1.80;;;;;;;20.86;50.89;101866.22;16127111;19;129507;-40
2022/10/28 17:19:45;;;;;;;6.47;1.52;;;;;;;20.85;50.94;101872.03;16124948;19;129447;-44
2022/10/28 17:25:08;;;;;;;9.15;1.95;;;;;;;20.84;51.16;101882.31;16126055;19;129510;-41
2022/10/28 17:30:30;;;;;;;6.18;1.90;;;;;;;20.83;51.18;101891.72;16126476;19;130883;-40
2022/10/28 17:35:51;;;;;;;11.48;1.92;;;;;;;20.83;51.03;101891.72;16126866;19;129806;-40
2022/10/28 17:41:13;;;;;;;7.47;1.70;;;;;;;20.84;51.09;101906.50;16127204;19;130509;-44
2022/10/28 17:46:35;;;;;;;8.48;2.25;;;;;;;20.83;51.33;101899.25;16126753;19;129529;-40
2022/10/28 17:51:56;;;;;;;8.02;1.67;;;;;;;20.83;51.30;101913.97;16125059;19;129099;-42
2022/10/28 17:57:18;;;;;;;4.70;1.20;;;;;;;20.83;51.13;101927.88;16126040;19;130336;-40
2022/10/28 18:02:40;;;;;;;5.72;1.67;;;;;;;20.82;51.39;101923.41;16127267;19;129337;-39
2022/10/28 18:08:02;;;;;;;6.60;1.70;;;;;;;20.82;51.22;101923.41;16123509;19;129943;-42
2022/10/28 18:13:31;;;;;;;7.38;1.52;;;;;;;20.82;51.49;101936.47;16123573;19;129683;-41
2022/10/28 18:18:54;;;;;;;20.20;2.30;;;;;;;20.81;51.53;101938.41;16123414;19;130172;-40
2022/10/28 18:24:19;;;;;;;22.63;3.00;;;;;;;20.84;51.56;101935.16;16116177;19;129472;-40
2022/10/28 18:29:46;;;;;;;21.95;2.80;;;;;;;20.89;51.53;101938.09;16121390;19;134793;-40
2022/10/28 18:35:08;;;;;;;18.80;2.25;;;;;;;20.96;51.34;101935.19;16119471;19;130205;-39
2022/10/28 18:40:30;;;;;;;15.35;2.60;;;;;;;21.02;51.17;101944.53;16122570;19;131126;-39
2022/10/28 18:45:52;;;;;;;19.38;2.40;;;;;;;21.07;51.08;101933.50;16125662;19;129447;-41
2022/10/28 18:51:14;;;;;;;17.75;2.83;;;;;;;21.09;51.32;101934.13;16122908;19;129005;-41
2022/10/28 18:56:36;;;;;;;20.05;2.58;;;;;;;21.11;51.10;101950.59;16121324;19;129839;-41
2022/10/28 19:01:58;;;;;;;21.88;2.25;;;;;;;21.11;51.47;101953.38;16124845;19;129876;-40
2022/10/28 19:07:19;;;;;;;15.98;2.20;;;;;;;21.12;51.55;101971.75;16121319;19;129217;-41
2022/10/28 19:12:41;;;;;;;22.25;2.83;;;;;;;21.11;51.48;101972.84;16122641;19;134309;-40
2022/10/28 19:18:08;;;;;;;10.77;1.73;;;;;;;21.11;51.23;101986.78;16120096;19;129893;-40
2022/10/28 19:23:31;;;;;;;13.63;2.30;;;;;;;21.11;51.41;101981.22;16118840;19;129488;-40
2022/10/28 19:28:53;;;;;;;16.35;1.90;;;;;;;21.10;51.45;101980.34;16120485;19;129615;-40
2022/10/28 19:34:14;;;;;;;7.78;1.65;;;;;;;21.09;51.74;101980.59;16118103;19;129750;-40
2022/10/28 19:39:36;;;;;;;17.67;2.25;;;;;;;21.08;51.84;101981.66;16124282;19;129218;-40
2022/10/28 19:44:59;;;;;;;11.48;1.70;;;;;;;21.05;51.54;101994.09;16130520;19;130440;-42
2022/10/28 19:50:21;;;;;;;23.48;2.15;;;;;;;21.02;51.65;101986.25;16139266;19;134360;-40
2022/10/28 19:55:43;;;;;;;12.35;1.90;;;;;;;21.02;52.29;101994.59;16133816;19;129832;-41
2022/10/28 20:01:06;;;;;;;11.95;1.50;;;;;;;21.01;52.27;102004.03;16133741;19;129521;-41
2022/10/28 20:06:33;;;;;;;11.80;1.60;;;;;;;21.03;52.11;102013.00;16133340;19;129557;-43
2022/10/28 20:11:55;;;;;;;33.00;3.45;;;;;;;21.04;52.52;102020.25;16131979;19;130593;-40
2022/10/28 20:17:16;;;;;;;15.43;2.42;;;;;;;21.07;51.97;102022.53;16134437;19;129483;-42
2022/10/28 20:22:38;;;;;;;28.83;4.13;;;;;;;21.08;52.35;102018.69;16131824;19;129787;-40
2022/10/28 20:28:03;;;;;;;22.42;3.35;;;;;;;21.09;52.06;102012.03;16133278;19;130062;-41
2022/10/28 20:33:25;;;;;;;24.58;2.75;;;;;;;21.11;52.48;102026.56;16132984;19;129096;-45
2022/10/28 20:38:46;;;;;;;24.88;2.75;;;;;;;21.12;52.73;102031.03;16130608;19;134828;-42
2022/10/28 20:44:09;;;;;;;19.98;2.33;;;;;;;21.13;52.27;102035.53;16132811;19;129671;-41
2022/10/28 20:49:31;;;;;;;12.98;2.20;;;;;;;21.17;52.49;102041.47;16126827;19;129487;-41
2022/10/28 20:54:53;;;;;;;19.73;2.65;;;;;;;21.19;52.10;102042.91;16129158;19;130271;-41
2022/10/28 21:00:15;;;;;;;12.45;2.80;;;;;;;21.20;52.62;102052.97;16127662;19;129695;-41
2022/10/28 21:05:37;;;;;;;20.27;2.58;;;;;;;21.20;52.16;102047.41;16128568;19;129568;-41
2022/10/28 21:11:07;;;;;;;28.23;2.33;;;;;;;21.21;52.48;102049.09;16129930;19;130198;-42
2022/10/28 21:16:29;;;;;;;35.50;3.33;;;;;;;21.20;52.20;102047.41;16127817;19;129219;-41
2022/10/28 21:21:51;;;;;;;29.13;3.00;;;;;;;21.16;52.21;102043.41;16128125;19;129482;-42
2022/10/28 21:27:12;;;;;;;17.17;2.95;;;;;;;21.12;52.57;102056.09;16125990;19;130463;-42
2022/10/28 21:32:36;;;;;;;19.10;3.33;;;;;;;21.09;52.45;102052.94;16125512;19;130079;-42
2022/10/28 21:37:57;;;;;;;20.90;2.50;;;;;;;21.04;52.31;102048.91;16128437;19;129600;-41
2022/10/28 21:43:19;;;;;;;21.27;2.85;;;;;;;21.00;51.93;102064.38;16126316;19;130166;-42
2022/10/28 21:48:41;;;;;;;14.00;2.25;;;;;;;20.98;51.91;102071.25;16126919;19;129552;-42
2022/10/28 21:54:03;;;;;;;18.85;2.20;;;;;;;20.96;51.70;102056.72;16128481;19;130101;-43
2022/10/28 21:59:25;;;;;;;13.43;2.42;;;;;;;20.92;51.89;102058.31;16128330;19;130603;-44
2022/10/28 22:04:47;;;;;;;12.60;2.20;;;;;;;20.89;52.17;102052.13;16125180;19;129890;-42
2022/10/28 22:10:08;;;;;;;12.48;2.30;;;;;;;20.87;52.25;102050.63;16126185;19;129554;-44
2022/10/28 22:15:30;;;;;;;10.20;2.08;;;;;;;20.85;52.05;102062.00;16125321;19;129565;-43
2022/10/28 22:20:52;;;;;;;5.22;1.40;;;;;;;20.83;52.08;102064.16;16125133;19;129573;-41
2022/10/28 22:26:19;;;;;;;9.93;2.00;;;;;;;20.81;52.01;102062.72;16124511;19;131930;-42
2022/10/28 22:31:41;;;;;;;14.70;1.92;;;;;;;20.79;52.17;102060.19;16123737;19;129551;-43
2022/10/28 22:37:02;;;;;;;7.43;1.50;;;;;;;20.78;52.13;102077.06;16125306;19;130233;-43
2022/10/28 22:42:24;;;;;;;8.77;1.20;;;;;;;20.76;51.75;102068.97;16123421;19;129804;-41
2022/10/28 22:47:48;;;;;;;3.78;1.40;;;;;;;20.74;52.10;102044.13;16126822;19;129740;-42
2022/10/28 22:53:09;;;;;;;7.88;1.20;;;;;;;20.73;52.07;102047.16;16124289;19;129524;-42
2022/10/28 22:58:31;;;;;;;6.20;1.10;;;;;;;20.71;52.07;102064.09;16121711;19;129515;-41
2022/10/28 23:03:53;;;;;;;4.72;1.23;;;;;;;20.71;51.81;102063.22;16120388;19;129148;-42
2022/10/28 23:09:15;;;;;;;3.47;1.42;;;;;;;20.69;51.64;102063.47;16122275;19;130389;-43
2022/10/28 23:14:37;;;;;;;4.45;1.17;;;;;;;20.68;52.03;102072.88;16129063;19;130231;-42
2022/10/28 23:19:58;;;;;;;7.30;1.35;;;;;;;20.66;52.05;102063.09;16137965;19;129568;-43
2022/10/28 23:25:20;;;;;;;7.07;1.20;;;;;;;20.66;51.65;102065.88;16138419;19;129948;-42
2022/10/28 23:30:42;;;;;;;2.22;0.85;;;;;;;20.65;51.56;102073.34;16135417;19;130270;-41
2022/10/28 23:36:04;;;;;;;4.70;0.98;;;;;;;20.64;51.94;102059.69;16136892;19;129582;-43
2022/10/28 23:41:25;;;;;;;4.15;1.02;;;;;;;20.62;51.53;102046.00;16138911;19;128924;-41
2022/10/28 23:46:47;;;;;;;3.08;1.10;;;;;;;20.62;51.95;102045.16;16137400;19;129959;-43
2022/10/28 23:52:09;;;;;;;3.45;0.90;;;;;;;20.60;51.96;102037.06;16138042;19;129716;-44
2022/10/28 23:57:30;;;;;;;1.58;0.80;;;;;;;20.59;51.84;102027.03;16136185;19;129480;-42
